sensor_id;sensor_type;location;lat;lon;timestamp;temperature;humidity
7498;DHT22;3790;48.806;9.140;2024-03-17T00:01:25;7.60;99.90
7498;DHT22;3790;48.806;9.140;2024-03-17T00:06:26;7.40;99.90
7498;DHT22;3790;48.806;9.140;2024-03-17T00:11:26;7.20;99.90
7498;DHT22;3790;48.806;9.140;2024-03-17T00:16:27;7.30;99.90
7498;DHT22;3790;48.806;9.140;2024-03-17T00:21:28;7.40;99.90
7498;DHT22;3790;48.806;9.140;2024-03-17T00:26:29;7.40;99.90
7498;DHT22;3790;48.806;9.140;2024-03-17T00:31:30;7.30;99.90
7498;DHT22;3790;48.806;9.140;2024-03-17T00:36:32;7.30;99.90
7498;DHT22;3790;48.806;9.140;2024-03-17T00:41:32;7.30;99.90
7498;DHT22;3790;48.806;9.140;2024-03-17T00:46:33;7.50;99.90
7498;DHT22;3790;48.806;9.140;2024-03-17T00:51:33;7.40;99.90
7498;DHT22;3790;48.806;9.140;2024-03-17T00:56:34;7.50;99.90
7498;DHT22;3790;48.806;9.140;2024-03-17T01:01:34;7.50;99.90
7498;DHT22;3790;48.806;9.140;2024-03-17T01:06:35;7.50;99.90
7498;DHT22;3790;48.806;9.140;2024-03-17T01:11:36;7.40;99.90
7498;DHT22;3790;48.806;9.140;2024-03-17T01:16:36;7.10;99.90
7498;DHT22;3790;48.806;9.140;2024-03-17T01:21:37;6.90;99.90
7498;DHT22;3790;48.806;9.140;2024-03-17T01:26:37;6.80;99.90
7498;DHT22;3790;48.806;9.140;2024-03-17T01:31:38;6.60;99.90
7498;DHT22;3790;48.806;9.140;2024-03-17T01:36:38;6.70;99.90
7498;DHT22;3790;48.806;9.140;2024-03-17T01:41:39;6.70;99.90
7498;DHT22;3790;48.806;9.140;2024-03-17T01:46:40;6.60;99.90
7498;DHT22;3790;48.806;9.140;2024-03-17T01:51:40;6.70;99.90
7498;DHT22;3790;48.806;9.140;2024-03-17T01:56:41;6.60;99.90
7498;DHT22;3790;48.806;9.140;2024-03-17T02:01:43;6.70;99.90
7498;DHT22;3790;48.806;9.140;2024-03-17T02:06:43;6.70;99.90
7498;DHT22;3790;48.806;9.140;2024-03-17T02:11:45;6.70;99.90
7498;DHT22;3790;48.806;9.140;2024-03-17T02:16:45;6.70;99.90
7498;DHT22;3790;48.806;9.140;2024-03-17T02:21:46;6.60;99.90
7498;DHT22;3790;48.806;9.140;2024-03-17T02:26:46;6.70;99.90
7498;DHT22;3790;48.806;9.140;2024-03-17T02:31:47;6.30;99.90
7498;DHT22;3790;48.806;9.140;2024-03-17T02:36:47;6.40;99.90
7498;DHT22;3790;48.806;9.140;2024-03-17T02:41:48;6.60;99.90
7498;DHT22;3790;48.806;9.140;2024-03-17T02:46:49;6.80;99.90
7498;DHT22;3790;48.806;9.140;2024-03-17T02:51:50;6.80;99.90
7498;DHT22;3790;48.806;9.140;2024-03-17T02:56:50;6.60;99.90
7498;DHT22;3790;48.806;9.140;2024-03-17T03:01:52;6.30;99.90
7498;DHT22;3790;48.806;9.140;2024-03-17T03:06:53;6.30;99.90
7498;DHT22;3790;48.806;9.140;2024-03-17T03:11:53;6.30;99.90
7498;DHT22;3790;48.806;9.140;2024-03-17T03:16:54;6.10;99.90
7498;DHT22;3790;48.806;9.140;2024-03-17T03:21:55;6.30;99.90
7498;DHT22;3790;48.806;9.140;2024-03-17T03:26:56;6.20;99.90
7498;DHT22;3790;48.806;9.140;2024-03-17T03:31:56;6.30;99.90
7498;DHT22;3790;48.806;9.140;2024-03-17T03:36:58;6.20;99.90
7498;DHT22;3790;48.806;9.140;2024-03-17T03:41:59;6.00;99.90
7498;DHT22;3790;48.806;9.140;2024-03-17T03:46:59;6.00;99.90
7498;DHT22;3790;48.806;9.140;2024-03-17T03:52:01;6.10;99.90
7498;DHT22;3790;48.806;9.140;2024-03-17T03:57:01;6.20;99.90
7498;DHT22;3790;48.806;9.140;2024-03-17T04:02:03;5.90;99.90
7498;DHT22;3790;48.806;9.140;2024-03-17T04:07:03;5.90;99.90
7498;DHT22;3790;48.806;9.140;2024-03-17T04:12:04;6.00;99.90
7498;DHT22;3790;48.806;9.140;2024-03-17T04:17:05;6.10;99.90
7498;DHT22;3790;48.806;9.140;2024-03-17T04:22:06;6.10;99.90
7498;DHT22;3790;48.806;9.140;2024-03-17T04:27:07;6.10;99.90
7498;DHT22;3790;48.806;9.140;2024-03-17T04:32:07;6.00;99.90
7498;DHT22;3790;48.806;9.140;2024-03-17T04:37:08;6.00;99.90
7498;DHT22;3790;48.806;9.140;2024-03-17T04:42:09;6.20;99.90
7498;DHT22;3790;48.806;9.140;2024-03-17T04:47:11;6.10;99.90
7498;DHT22;3790;48.806;9.140;2024-03-17T04:52:12;6.00;99.90
7498;DHT22;3790;48.806;9.140;2024-03-17T04:57:13;5.90;99.90
7498;DHT22;3790;48.806;9.140;2024-03-17T05:02:14;5.90;99.90
7498;DHT22;3790;48.806;9.140;2024-03-17T05:07:14;5.90;99.90
7498;DHT22;3790;48.806;9.140;2024-03-17T05:12:15;5.90;99.90
7498;DHT22;3790;48.806;9.140;2024-03-17T05:17:15;5.80;99.90
7498;DHT22;3790;48.806;9.140;2024-03-17T05:22:16;5.50;99.90
7498;DHT22;3790;48.806;9.140;2024-03-17T05:27:16;5.60;99.90
7498;DHT22;3790;48.806;9.140;2024-03-17T05:32:17;5.60;99.90
7498;DHT22;3790;48.806;9.140;2024-03-17T05:37:17;5.70;99.90
7498;DHT22;3790;48.806;9.140;2024-03-17T05:42:18;5.80;99.90
7498;DHT22;3790;48.806;9.140;2024-03-17T05:47:20;5.90;99.90
7498;DHT22;3790;48.806;9.140;2024-03-17T05:52:20;5.90;99.90
7498;DHT22;3790;48.806;9.140;2024-03-17T05:57:22;5.80;99.90
7498;DHT22;3790;48.806;9.140;2024-03-17T06:02:24;5.80;99.90
7498;DHT22;3790;48.806;9.140;2024-03-17T06:07:25;5.80;99.90
7498;DHT22;3790;48.806;9.140;2024-03-17T06:12:25;5.80;99.90
7498;DHT22;3790;48.806;9.140;2024-03-17T06:17:25;5.80;99.90
7498;DHT22;3790;48.806;9.140;2024-03-17T06:22:27;5.80;99.90
7498;DHT22;3790;48.806;9.140;2024-03-17T06:27:27;6.00;99.90
7498;DHT22;3790;48.806;9.140;2024-03-17T06:32:32;6.10;99.90
7498;DHT22;3790;48.806;9.140;2024-03-17T06:37:34;6.10;99.90
7498;DHT22;3790;48.806;9.140;2024-03-17T06:42:35;6.10;99.90
7498;DHT22;3790;48.806;9.140;2024-03-17T06:47:36;6.20;99.90
7498;DHT22;3790;48.806;9.140;2024-03-17T06:52:36;6.30;99.90
7498;DHT22;3790;48.806;9.140;2024-03-17T06:57:37;6.40;99.90
7498;DHT22;3790;48.806;9.140;2024-03-17T07:02:38;6.60;99.90
7498;DHT22;3790;48.806;9.140;2024-03-17T07:07:38;6.90;99.90
7498;DHT22;3790;48.806;9.140;2024-03-17T07:12:40;7.30;99.90
7498;DHT22;3790;48.806;9.140;2024-03-17T07:17:41;7.70;99.90
7498;DHT22;3790;48.806;9.140;2024-03-17T07:22:41;7.80;99.90
7498;DHT22;3790;48.806;9.140;2024-03-17T07:27:42;8.10;99.90
7498;DHT22;3790;48.806;9.140;2024-03-17T07:32:42;8.30;99.90
7498;DHT22;3790;48.806;9.140;2024-03-17T07:37:43;8.50;99.90
7498;DHT22;3790;48.806;9.140;2024-03-17T07:42:43;8.70;99.90
7498;DHT22;3790;48.806;9.140;2024-03-17T07:47:45;9.00;99.90
7498;DHT22;3790;48.806;9.140;2024-03-17T07:52:46;9.20;99.90
7498;DHT22;3790;48.806;9.140;2024-03-17T07:57:46;9.50;99.90
7498;DHT22;3790;48.806;9.140;2024-03-17T08:02:47;9.80;99.90
7498;DHT22;3790;48.806;9.140;2024-03-17T08:07:47;10.00;99.90
7498;DHT22;3790;48.806;9.140;2024-03-17T08:12:48;10.30;99.90
7498;DHT22;3790;48.806;9.140;2024-03-17T08:17:48;10.70;99.90
7498;DHT22;3790;48.806;9.140;2024-03-17T08:22:49;10.80;99.90
7498;DHT22;3790;48.806;9.140;2024-03-17T08:27:49;11.20;99.90
7498;DHT22;3790;48.806;9.140;2024-03-17T08:32:50;11.40;99.90
7498;DHT22;3790;48.806;9.140;2024-03-17T08:37:50;11.50;99.90
7498;DHT22;3790;48.806;9.140;2024-03-17T08:42:57;11.70;99.90
7498;DHT22;3790;48.806;9.140;2024-03-17T08:47:57;11.90;99.90
7498;DHT22;3790;48.806;9.140;2024-03-17T08:52:58;12.00;99.90
7498;DHT22;3790;48.806;9.140;2024-03-17T08:57:58;11.90;99.90
7498;DHT22;3790;48.806;9.140;2024-03-17T09:02:59;11.80;99.90
7498;DHT22;3790;48.806;9.140;2024-03-17T09:07:59;11.70;99.90
7498;DHT22;3790;48.806;9.140;2024-03-17T09:13:01;11.80;99.90
7498;DHT22;3790;48.806;9.140;2024-03-17T09:18:01;12.10;99.90
7498;DHT22;3790;48.806;9.140;2024-03-17T09:23:03;12.30;99.90
7498;DHT22;3790;48.806;9.140;2024-03-17T09:28:04;12.60;99.90
7498;DHT22;3790;48.806;9.140;2024-03-17T09:33:04;12.80;99.90
7498;DHT22;3790;48.806;9.140;2024-03-17T09:38:05;12.80;99.90
7498;DHT22;3790;48.806;9.140;2024-03-17T09:43:08;13.10;99.90
7498;DHT22;3790;48.806;9.140;2024-03-17T09:48:15;13.40;99.90
7498;DHT22;3790;48.806;9.140;2024-03-17T09:53:26;13.40;99.90
7498;DHT22;3790;48.806;9.140;2024-03-17T09:58:27;13.60;99.90
7498;DHT22;3790;48.806;9.140;2024-03-17T10:08:57;13.70;99.90
7498;DHT22;3790;48.806;9.140;2024-03-17T10:19:13;13.70;99.90
7498;DHT22;3790;48.806;9.140;2024-03-17T10:24:24;13.70;99.90
7498;DHT22;3790;48.806;9.140;2024-03-17T10:29:30;13.70;99.90
7498;DHT22;3790;48.806;9.140;2024-03-17T10:34:31;13.70;99.90
7498;DHT22;3790;48.806;9.140;2024-03-17T10:39:36;13.70;99.90
7498;DHT22;3790;48.806;9.140;2024-03-17T10:44:39;13.60;99.90
7498;DHT22;3790;48.806;9.140;2024-03-17T10:49:40;13.90;99.90
7498;DHT22;3790;48.806;9.140;2024-03-17T10:54:47;14.30;99.90
7498;DHT22;3790;48.806;9.140;2024-03-17T10:59:48;14.60;99.90
7498;DHT22;3790;48.806;9.140;2024-03-17T11:04:55;14.70;99.90
7498;DHT22;3790;48.806;9.140;2024-03-17T11:09:56;14.70;99.90
7498;DHT22;3790;48.806;9.140;2024-03-17T11:20:25;14.50;99.90
7498;DHT22;3790;48.806;9.140;2024-03-17T11:35:44;14.60;99.90
7498;DHT22;3790;48.806;9.140;2024-03-17T11:40:45;14.50;99.90
7498;DHT22;3790;48.806;9.140;2024-03-17T11:45:45;14.60;99.90
7498;DHT22;3790;48.806;9.140;2024-03-17T11:50:46;14.50;99.90
7498;DHT22;3790;48.806;9.140;2024-03-17T11:55:49;14.80;99.90
7498;DHT22;3790;48.806;9.140;2024-03-17T12:00:53;14.80;99.90
7498;DHT22;3790;48.806;9.140;2024-03-17T12:05:54;14.90;99.90
7498;DHT22;3790;48.806;9.140;2024-03-17T12:10:55;15.10;99.90
7498;DHT22;3790;48.806;9.140;2024-03-17T12:16:13;14.90;99.90
7498;DHT22;3790;48.806;9.140;2024-03-17T12:21:14;15.00;99.90
7498;DHT22;3790;48.806;9.140;2024-03-17T12:26:16;14.40;99.90
7498;DHT22;3790;48.806;9.140;2024-03-17T12:31:16;13.90;99.90
7498;DHT22;3790;48.806;9.140;2024-03-17T12:36:17;14.30;99.90
7498;DHT22;3790;48.806;9.140;2024-03-17T12:41:18;14.70;99.90
7498;DHT22;3790;48.806;9.140;2024-03-17T12:57:28;15.30;99.90
7498;DHT22;3790;48.806;9.140;2024-03-17T13:02:47;15.50;99.90
7498;DHT22;3790;48.806;9.140;2024-03-17T13:07:47;15.80;99.90
7498;DHT22;3790;48.806;9.140;2024-03-17T13:12:57;15.70;99.90
7498;DHT22;3790;48.806;9.140;2024-03-17T13:17:58;15.70;99.90
7498;DHT22;3790;48.806;9.140;2024-03-17T13:22:59;16.00;99.90
7498;DHT22;3790;48.806;9.140;2024-03-17T13:28:04;16.00;99.90
7498;DHT22;3790;48.806;9.140;2024-03-17T13:33:07;16.30;99.90
7498;DHT22;3790;48.806;9.140;2024-03-17T13:38:11;16.30;99.90
7498;DHT22;3790;48.806;9.140;2024-03-17T13:43:12;16.30;99.90
7498;DHT22;3790;48.806;9.140;2024-03-17T13:48:13;16.40;99.90
7498;DHT22;3790;48.806;9.140;2024-03-17T13:53:13;16.50;99.90
7498;DHT22;3790;48.806;9.140;2024-03-17T13:58:14;16.70;99.90
7498;DHT22;3790;48.806;9.140;2024-03-17T14:03:14;16.60;99.90
7498;DHT22;3790;48.806;9.140;2024-03-17T14:08:15;16.30;99.90
7498;DHT22;3790;48.806;9.140;2024-03-17T14:13:15;16.20;99.90
7498;DHT22;3790;48.806;9.140;2024-03-17T14:18:16;16.20;99.90
7498;DHT22;3790;48.806;9.140;2024-03-17T14:23:17;16.20;99.90
7498;DHT22;3790;48.806;9.140;2024-03-17T14:28:17;16.10;99.90
7498;DHT22;3790;48.806;9.140;2024-03-17T14:33:19;16.00;99.90
7498;DHT22;3790;48.806;9.140;2024-03-17T14:38:20;15.90;99.90
7498;DHT22;3790;48.806;9.140;2024-03-17T14:43:20;15.80;99.90
7498;DHT22;3790;48.806;9.140;2024-03-17T14:48:21;15.90;99.90
7498;DHT22;3790;48.806;9.140;2024-03-17T14:53:21;15.90;99.90
7498;DHT22;3790;48.806;9.140;2024-03-17T14:58:22;16.10;99.90
7498;DHT22;3790;48.806;9.140;2024-03-17T15:03:22;16.30;99.90
7498;DHT22;3790;48.806;9.140;2024-03-17T15:08:23;16.20;99.90
7498;DHT22;3790;48.806;9.140;2024-03-17T15:13:23;16.10;99.90
7498;DHT22;3790;48.806;9.140;2024-03-17T15:18:24;15.80;99.90
7498;DHT22;3790;48.806;9.140;2024-03-17T15:23:25;16.30;99.90
7498;DHT22;3790;48.806;9.140;2024-03-17T15:28:32;16.50;99.90
7498;DHT22;3790;48.806;9.140;2024-03-17T15:33:33;16.40;99.90
7498;DHT22;3790;48.806;9.140;2024-03-17T15:38:38;16.30;99.90
7498;DHT22;3790;48.806;9.140;2024-03-17T15:43:39;15.90;99.90
7498;DHT22;3790;48.806;9.140;2024-03-17T15:48:40;15.60;99.90
7498;DHT22;3790;48.806;9.140;2024-03-17T15:53:41;15.70;99.90
7498;DHT22;3790;48.806;9.140;2024-03-17T15:58:42;15.60;99.90
7498;DHT22;3790;48.806;9.140;2024-03-17T16:03:43;15.50;99.90
7498;DHT22;3790;48.806;9.140;2024-03-17T16:08:46;15.30;99.90
7498;DHT22;3790;48.806;9.140;2024-03-17T16:13:47;15.00;99.90
7498;DHT22;3790;48.806;9.140;2024-03-17T16:18:48;14.80;99.90
7498;DHT22;3790;48.806;9.140;2024-03-17T16:29:01;14.50;99.90
7498;DHT22;3790;48.806;9.140;2024-03-17T16:34:09;14.40;99.90
7498;DHT22;3790;48.806;9.140;2024-03-17T16:39:12;14.40;99.90
7498;DHT22;3790;48.806;9.140;2024-03-17T16:49:21;14.30;99.90
7498;DHT22;3790;48.806;9.140;2024-03-17T16:54:23;14.20;99.90
7498;DHT22;3790;48.806;9.140;2024-03-17T16:59:23;14.20;99.90
7498;DHT22;3790;48.806;9.140;2024-03-17T17:04:25;14.20;99.90
7498;DHT22;3790;48.806;9.140;2024-03-17T17:09:27;14.20;99.90
7498;DHT22;3790;48.806;9.140;2024-03-17T17:14:30;14.00;99.90
7498;DHT22;3790;48.806;9.140;2024-03-17T17:19:36;13.90;99.90
7498;DHT22;3790;48.806;9.140;2024-03-17T17:24:40;13.80;99.90
7498;DHT22;3790;48.806;9.140;2024-03-17T17:29:41;13.60;99.90
7498;DHT22;3790;48.806;9.140;2024-03-17T17:34:41;13.50;99.90
7498;DHT22;3790;48.806;9.140;2024-03-17T17:39:42;13.40;99.90
7498;DHT22;3790;48.806;9.140;2024-03-17T17:44:42;13.30;99.90
7498;DHT22;3790;48.806;9.140;2024-03-17T17:49:46;13.30;99.90
7498;DHT22;3790;48.806;9.140;2024-03-17T17:54:51;13.20;99.90
7498;DHT22;3790;48.806;9.140;2024-03-17T17:59:52;13.20;99.90
7498;DHT22;3790;48.806;9.140;2024-03-17T18:04:53;12.80;99.90
7498;DHT22;3790;48.806;9.140;2024-03-17T18:09:54;12.80;99.90
7498;DHT22;3790;48.806;9.140;2024-03-17T18:14:54;12.80;99.90
7498;DHT22;3790;48.806;9.140;2024-03-17T18:19:56;12.50;99.90
7498;DHT22;3790;48.806;9.140;2024-03-17T18:24:57;12.20;99.90
7498;DHT22;3790;48.806;9.140;2024-03-17T18:29:57;12.20;99.90
7498;DHT22;3790;48.806;9.140;2024-03-17T18:34:58;12.30;99.90
7498;DHT22;3790;48.806;9.140;2024-03-17T18:39:59;12.20;99.90
7498;DHT22;3790;48.806;9.140;2024-03-17T18:44:59;12.10;99.90
7498;DHT22;3790;48.806;9.140;2024-03-17T18:50:00;12.00;99.90
7498;DHT22;3790;48.806;9.140;2024-03-17T18:55:00;11.80;99.90
7498;DHT22;3790;48.806;9.140;2024-03-17T19:00:01;11.60;99.90
7498;DHT22;3790;48.806;9.140;2024-03-17T19:05:01;11.40;99.90
7498;DHT22;3790;48.806;9.140;2024-03-17T19:10:02;11.40;99.90
7498;DHT22;3790;48.806;9.140;2024-03-17T19:15:06;11.40;99.90
7498;DHT22;3790;48.806;9.140;2024-03-17T19:20:10;11.40;99.90
7498;DHT22;3790;48.806;9.140;2024-03-17T19:25:13;11.50;99.90
7498;DHT22;3790;48.806;9.140;2024-03-17T19:30:14;11.60;99.90
7498;DHT22;3790;48.806;9.140;2024-03-17T19:35:15;11.60;99.90
7498;DHT22;3790;48.806;9.140;2024-03-17T19:40:16;11.70;99.90
7498;DHT22;3790;48.806;9.140;2024-03-17T19:45:18;11.70;99.90
7498;DHT22;3790;48.806;9.140;2024-03-17T19:50:19;11.60;99.90
7498;DHT22;3790;48.806;9.140;2024-03-17T19:55:20;11.50;99.90
7498;DHT22;3790;48.806;9.140;2024-03-17T20:00:26;11.40;99.90
7498;DHT22;3790;48.806;9.140;2024-03-17T20:05:26;11.20;99.90
7498;DHT22;3790;48.806;9.140;2024-03-17T20:10:27;11.20;99.90
7498;DHT22;3790;48.806;9.140;2024-03-17T20:15:28;11.10;99.90
7498;DHT22;3790;48.806;9.140;2024-03-17T20:20:29;11.10;99.90
7498;DHT22;3790;48.806;9.140;2024-03-17T20:25:30;10.90;99.90
7498;DHT22;3790;48.806;9.140;2024-03-17T20:30:31;10.70;99.90
7498;DHT22;3790;48.806;9.140;2024-03-17T20:35:31;10.70;99.90
7498;DHT22;3790;48.806;9.140;2024-03-17T20:40:32;10.70;99.90
7498;DHT22;3790;48.806;9.140;2024-03-17T20:45:33;10.70;99.90
7498;DHT22;3790;48.806;9.140;2024-03-17T20:50:35;10.80;99.90
7498;DHT22;3790;48.806;9.140;2024-03-17T20:55:37;10.90;99.90
7498;DHT22;3790;48.806;9.140;2024-03-17T21:00:37;10.90;99.90
7498;DHT22;3790;48.806;9.140;2024-03-17T21:05:38;11.00;99.90
7498;DHT22;3790;48.806;9.140;2024-03-17T21:10:39;11.00;99.90
7498;DHT22;3790;48.806;9.140;2024-03-17T21:15:40;11.10;99.90
7498;DHT22;3790;48.806;9.140;2024-03-17T21:20:44;11.10;99.90
7498;DHT22;3790;48.806;9.140;2024-03-17T21:25:45;11.10;99.90
7498;DHT22;3790;48.806;9.140;2024-03-17T21:30:45;10.90;99.90
7498;DHT22;3790;48.806;9.140;2024-03-17T21:35:48;10.60;99.90
7498;DHT22;3790;48.806;9.140;2024-03-17T21:40:50;10.40;99.90
7498;DHT22;3790;48.806;9.140;2024-03-17T21:45:50;10.40;99.90
7498;DHT22;3790;48.806;9.140;2024-03-17T21:50:55;10.60;99.90
7498;DHT22;3790;48.806;9.140;2024-03-17T21:55:57;10.80;99.90
7498;DHT22;3790;48.806;9.140;2024-03-17T22:01:01;10.80;99.90
7498;DHT22;3790;48.806;9.140;2024-03-17T22:06:04;11.00;99.90
7498;DHT22;3790;48.806;9.140;2024-03-17T22:11:04;10.80;99.90
7498;DHT22;3790;48.806;9.140;2024-03-17T22:16:07;10.70;99.90
7498;DHT22;3790;48.806;9.140;2024-03-17T22:21:09;10.60;99.90
7498;DHT22;3790;48.806;9.140;2024-03-17T22:26:10;10.30;99.90
7498;DHT22;3790;48.806;9.140;2024-03-17T22:31:10;10.10;99.90
7498;DHT22;3790;48.806;9.140;2024-03-17T22:36:11;10.10;99.90
7498;DHT22;3790;48.806;9.140;2024-03-17T22:41:12;10.20;99.90
7498;DHT22;3790;48.806;9.140;2024-03-17T22:46:13;10.50;99.90
7498;DHT22;3790;48.806;9.140;2024-03-17T22:51:14;10.60;99.90
7498;DHT22;3790;48.806;9.140;2024-03-17T22:56:14;10.50;99.90
7498;DHT22;3790;48.806;9.140;2024-03-17T23:01:15;10.30;99.90
7498;DHT22;3790;48.806;9.140;2024-03-17T23:06:16;10.40;99.90
7498;DHT22;3790;48.806;9.140;2024-03-17T23:11:17;10.50;99.90
7498;DHT22;3790;48.806;9.140;2024-03-17T23:16:17;10.60;99.90
7498;DHT22;3790;48.806;9.140;2024-03-17T23:21:19;10.60;99.90
7498;DHT22;3790;48.806;9.140;2024-03-17T23:26:20;10.70;99.90
7498;DHT22;3790;48.806;9.140;2024-03-17T23:31:20;10.50;99.90
7498;DHT22;3790;48.806;9.140;2024-03-17T23:36:21;10.40;99.90
7498;DHT22;3790;48.806;9.140;2024-03-17T23:41:21;10.40;99.90
7498;DHT22;3790;48.806;9.140;2024-03-17T23:46:22;10.30;99.90
7498;DHT22;3790;48.806;9.140;2024-03-17T23:51:23;10.40;99.90
7498;DHT22;3790;48.806;9.140;2024-03-17T23:56:24;10.40;99.90
